TimeEDT,TemperatureF,Dew PointF,Humidity,Sea Level PressureIn,VisibilityMPH,Wind Direction,Wind SpeedMPH,Gust SpeedMPH,PrecipitationIn,Events,Conditions,WindDirDegrees,DateUTC
12:53 AM,69.1,66.0,90,29.83,9.0,North,3.5,-,N/A,,Clear,10,2013-07-01 04:53:00
1:53 AM,69.1,66.0,90,29.83,9.0,Calm,Calm,-,N/A,,Clear,0,2013-07-01 05:53:00
2:53 AM,69.1,66.0,90,29.82,9.0,Calm,Calm,-,N/A,,Overcast,0,2013-07-01 06:53:00
3:01 AM,69.8,66.2,88,29.84,9.0,Calm,Calm,-,N/A,Thunderstorm,Overcast,0,2013-07-01 07:01:00
3:38 AM,69.8,66.2,88,29.87,9.0,West,6.9,-,N/A,Thunderstorm,Overcast,280,2013-07-01 07:38:00
3:53 AM,69.1,64.9,87,29.85,9.0,WNW,18.4,25.3,N/A,Thunderstorm,Overcast,290,2013-07-01 07:53:00
4:23 AM,66.2,60.8,83,29.87,10.0,NNW,5.8,-,0.01,Rain-Thunderstorm,Light Thunderstorms and Rain,340,2013-07-01 08:23:00
4:34 AM,64.4,60.8,88,29.87,10.0,NW,4.6,-,0.01,Thunderstorm,Thunderstorm,320,2013-07-01 08:34:00
4:53 AM,64.9,60.1,84,29.87,10.0,Calm,Calm,-,0.01,Thunderstorm,Overcast,0,2013-07-01 08:53:00
5:03 AM,64.4,60.8,88,29.89,10.0,North,4.6,-,0.00,Rain,Light Rain,10,2013-07-01 09:03:00
5:44 AM,64.4,60.8,88,29.90,10.0,Calm,Calm,-,0.01,,Overcast,0,2013-07-01 09:44:00
5:53 AM,64.0,61.0,90,29.88,10.0,NE,3.5,-,0.01,Rain,Light Rain,40,2013-07-01 09:53:00
6:11 AM,64.4,60.8,88,29.90,9.0,Calm,Calm,-,0.00,Rain,Light Rain,0,2013-07-01 10:11:00
6:53 AM,64.0,62.1,93,29.89,8.0,Calm,Calm,-,0.03,Rain,Light Rain,0,2013-07-01 10:53:00
7:53 AM,64.0,63.0,96,29.88,8.0,SE,4.6,-,0.01,,Overcast,130,2013-07-01 11:53:00
8:53 AM,66.0,63.0,90,29.88,10.0,East,3.5,-,N/A,,Overcast,100,2013-07-01 12:53:00
9:53 AM,68.0,63.0,84,29.89,10.0,East,3.5,-,N/A,,Scattered Clouds,100,2013-07-01 13:53:00
10:53 AM,72.0,64.9,78,29.91,10.0,Calm,Calm,-,N/A,,Scattered Clouds,0,2013-07-01 14:53:00
11:06 AM,73.4,64.4,73,29.92,10.0,Variable,4.6,-,N/A,,Mostly Cloudy,0,2013-07-01 15:06:00
11:53 AM,75.0,66.0,73,29.90,10.0,NE,3.5,-,N/A,,Mostly Cloudy,40,2013-07-01 15:53:00
12:07 PM,75.2,64.4,69,29.92,10.0,Calm,Calm,-,N/A,,Partly Cloudy,0,2013-07-01 16:07:00
12:53 PM,78.1,66.0,66,29.90,10.0,Variable,3.5,-,N/A,,Scattered Clouds,0,2013-07-01 16:53:00
1:53 PM,79.0,64.9,62,29.89,10.0,Variable,3.5,-,N/A,,Mostly Cloudy,0,2013-07-01 17:53:00
2:00 PM,80.6,66.2,61,29.91,10.0,NNW,5.8,-,N/A,,Scattered Clouds,340,2013-07-01 18:00:00
2:53 PM,78.1,64.9,64,29.88,10.0,North,4.6,-,N/A,,Scattered Clouds,350,2013-07-01 18:53:00
3:53 PM,81.0,64.0,56,29.88,10.0,Calm,Calm,-,N/A,,Mostly Cloudy,0,2013-07-01 19:53:00
4:53 PM,82.9,64.9,54,29.88,10.0,Calm,Calm,-,N/A,,Partly Cloudy,0,2013-07-01 20:53:00
5:53 PM,81.0,64.0,56,29.86,10.0,Calm,Calm,-,N/A,,Clear,0,2013-07-01 21:53:00
6:53 PM,82.0,66.0,58,29.88,10.0,Calm,Calm,-,N/A,,Clear,0,2013-07-01 22:53:00
7:53 PM,78.1,66.9,68,29.88,10.0,North,3.5,-,N/A,,Clear,360,2013-07-01 23:53:00
8:53 PM,75.9,68.0,76,29.91,10.0,Calm,Calm,-,N/A,,Clear,0,2013-07-02 00:53:00
9:13 PM,73.4,69.8,88,29.94,10.0,NW,3.5,-,N/A,,Mostly Cloudy,310,2013-07-02 01:13:00
9:47 PM,73.4,68.0,83,29.93,10.0,NNW,6.9,-,0.00,Rain,Light Rain,330,2013-07-02 01:47:00
9:53 PM,73.9,68.0,82,29.91,10.0,NNW,6.9,-,0.00,Rain-Thunderstorm,Light Rain,340,2013-07-02 01:53:00
10:26 PM,71.6,69.8,94,29.98,1.8,South,12.7,-,0.20,Rain-Thunderstorm,Heavy Thunderstorms and Rain,170,2013-07-02 02:26:00
10:31 PM,69.8,69.8,100,29.99,0.8,South,17.3,23.0,0.49,Rain-Thunderstorm,Heavy Thunderstorms and Rain,190,2013-07-02 02:31:00
10:39 PM,68.0,64.4,88,29.99,0.5,SW,12.7,16.1,0.88,Fog-Rain-Thunderstorm,Heavy Thunderstorms and Rain,220,2013-07-02 02:39:00
10:53 PM,66.9,66.0,97,29.98,1.0,Variable,5.8,-,1.34,Rain-Thunderstorm,Heavy Thunderstorms and Rain,0,2013-07-02 02:53:00
11:11 PM,66.2,64.4,94,29.99,3.0,North,5.8,-,0.13,Rain-Thunderstorm,Rain,350,2013-07-02 03:11:00
11:29 PM,66.2,66.2,100,29.98,9.0,NE,4.6,-,0.15,Rain,Light Rain,40,2013-07-02 03:29:00
11:53 PM,66.9,66.0,97,29.96,10.0,ENE,3.5,-,0.15,,Mostly Cloudy,60,2013-07-02 03:53:00